Time;durP1;ratioP1;P1;durP2;ratioP2;P2;SDS_P1;SDS_P2;PMS_P1;PMS_P2;Temp;Humidity;BMP_temperature;BMP_pressure;BME280_temperature;BME280_humidity;BME280_pressure;Samples;Min_cycle;Max_cycle;Signal;HPM_P1;HPM_P2
2022/12/27 00:01:34;;;;;;;12.37;7.17;;;;;;;1.35;nan;-23853.31;5014959;28;20188;-70
2022/12/27 00:03:59;;;;;;;17.03;7.67;;;;;;;1.64;nan;-23861.59;5014937;28;20235;-70
2022/12/27 00:06:26;;;;;;;12.00;6.63;;;;;;;1.37;nan;-23853.75;5015240;28;20567;-69
2022/12/27 00:08:52;;;;;;;15.63;7.40;;;;;;;1.43;nan;-23855.47;5013262;28;20207;-70
2022/12/27 00:11:20;;;;;;;16.57;6.43;;;;;;;1.22;nan;-23849.72;5014708;28;20176;-70
2022/12/27 00:13:46;;;;;;;13.27;6.13;;;;;;;1.07;nan;-23845.31;5014967;28;20190;-71
2022/12/27 00:16:14;;;;;;;11.17;6.57;;;;;;;1.40;nan;-23854.59;5014685;28;20178;-71
2022/12/27 00:18:41;;;;;;;18.73;6.87;;;;;;;1.33;nan;-23852.75;5015137;28;20176;-71
2022/12/27 00:21:09;;;;;;;13.13;5.43;;;;;;;1.22;nan;-23849.59;5015071;28;20245;-71
2022/12/27 00:23:37;;;;;;;10.07;6.83;;;;;;;0.96;nan;-23842.16;5019337;28;20278;-69
2022/12/27 00:26:14;;;;;;;8.67;5.87;;;;;;;0.88;nan;-23840.16;5014943;28;20180;-69
2022/12/27 00:28:39;;;;;;;15.23;7.33;;;;;;;1.23;nan;-23850.03;5014716;28;20293;-69
2022/12/27 00:31:05;;;;;;;12.43;6.70;;;;;;;1.36;nan;-23853.44;5013257;28;20282;-71
2022/12/27 00:33:32;;;;;;;15.37;6.13;;;;;;;1.41;nan;-23855.03;5014283;28;20625;-69
2022/12/27 00:35:59;;;;;;;13.50;6.37;;;;;;;1.40;nan;-23854.75;5014462;28;20609;-70
2022/12/27 00:38:25;;;;;;;9.63;5.47;;;;;;;1.07;nan;-23845.31;5014395;28;20175;-69
2022/12/27 00:40:51;;;;;;;11.90;6.60;;;;;;;0.98;nan;-23842.88;5014240;28;20536;-70
2022/12/27 00:43:17;;;;;;;14.40;6.23;;;;;;;1.12;nan;-23846.88;5014353;28;20217;-71
2022/12/27 00:45:43;;;;;;;11.53;6.60;;;;;;;1.12;nan;-23846.88;5014054;28;20244;-71
2022/12/27 00:48:09;;;;;;;9.40;6.17;;;;;;;1.38;nan;-23854.16;5014218;28;20282;-71
2022/12/27 00:50:34;;;;;;;12.70;6.13;;;;;;;1.05;nan;-23844.88;5013996;28;20330;-71
2022/12/27 00:52:59;;;;;;;9.67;6.70;;;;;;;1.50;nan;-23857.47;5013967;28;20271;-70
2022/12/27 00:55:25;;;;;;;14.00;6.57;;;;;;;0.98;nan;-23842.88;5014282;28;20214;-70
2022/12/27 00:57:50;;;;;;;12.33;7.37;;;;;;;1.38;nan;-23854.03;5014251;28;20700;-70
2022/12/27 01:00:16;;;;;;;11.23;5.90;;;;;;;0.97;nan;-23842.44;5013387;28;20224;-70
2022/12/27 01:02:41;;;;;;;8.43;5.73;;;;;;;1.20;nan;-23849.16;5013632;28;20612;-70
2022/12/27 01:05:07;;;;;;;9.33;5.20;;;;;;;1.41;nan;-23854.88;5013856;28;20175;-70
2022/12/27 01:07:33;;;;;;;7.50;5.03;;;;;;;1.38;nan;-23854.03;5013554;28;20235;-70
2022/12/27 01:09:58;;;;;;;7.47;5.53;;;;;;;1.45;nan;-23856.03;5013663;28;20204;-70
2022/12/27 01:12:23;;;;;;;13.00;5.83;;;;;;;1.36;nan;-23853.59;5014063;28;20255;-70
2022/12/27 01:14:49;;;;;;;10.40;7.00;;;;;;;0.96;nan;-23842.16;5013715;28;20286;-71
2022/12/27 01:17:14;;;;;;;10.07;6.90;;;;;;;1.33;nan;-23852.75;5013876;28;20175;-69
2022/12/27 01:19:40;;;;;;;11.83;6.23;;;;;;;0.97;nan;-23842.59;5013172;28;20190;-70
2022/12/27 01:22:05;;;;;;;8.13;5.27;;;;;;;0.81;nan;-23838.00;5012022;28;20556;-70
2022/12/27 01:24:31;;;;;;;7.63;5.23;;;;;;;0.78;nan;-23837.16;5013390;28;20263;-69
2022/12/27 01:26:57;;;;;;;17.83;5.50;;;;;;;0.70;nan;-23835.00;5012005;28;20649;-70
2022/12/27 01:29:22;;;;;;;13.50;6.27;;;;;;;-0.34;nan;-23805.50;5013328;28;20293;-71
2022/12/27 01:31:48;;;;;;;13.27;7.77;;;;;;;0.81;nan;-23838.00;5013565;28;20249;-71
2022/12/27 01:34:15;;;;;;;13.53;5.70;;;;;;;0.84;nan;-23838.88;5013655;28;20191;-69
2022/12/27 01:36:41;;;;;;;12.60;6.03;;;;;;;0.75;nan;-23836.28;5014019;28;20259;-71
2022/12/27 01:39:10;;;;;;;12.67;5.50;;;;;;;0.49;nan;-23828.84;5013262;28;20175;-70
2022/12/27 01:44:34;;;;;;;10.80;4.77;;;;;;;1.01;nan;-23843.59;5012797;28;20260;-70
2022/12/27 01:47:01;;;;;;;11.90;6.07;;;;;;;0.68;nan;-23834.44;5013271;28;20183;-70
2022/12/27 01:49:27;;;;;;;14.73;6.07;;;;;;;0.88;nan;-23840.16;5013284;28;20524;-71
2022/12/27 01:51:52;;;;;;;8.63;5.93;;;;;;;0.50;nan;-23829.13;5012782;28;20175;-70
2022/12/27 01:54:18;;;;;;;16.33;6.07;;;;;;;0.75;nan;-23836.28;5012924;28;20664;-69
2022/12/27 01:56:43;;;;;;;16.23;5.40;;;;;;;0.61;nan;-23832.28;5012703;28;20183;-69
2022/12/27 01:59:11;;;;;;;13.00;5.63;;;;;;;0.68;nan;-23834.28;5012655;28;20180;-70
2022/12/27 02:01:45;;;;;;;8.70;5.27;;;;;;;0.51;nan;-23829.56;5012846;28;20237;-70
2022/12/27 02:04:17;;;;;;;7.93;5.43;;;;;;;0.50;nan;-23829.13;5011423;28;20737;-70
2022/12/27 02:06:44;;;;;;;5.10;4.23;;;;;;;0.97;nan;-23842.44;5013041;28;20566;-70
2022/12/27 02:09:12;;;;;;;16.90;5.33;;;;;;;1.02;nan;-23843.88;5012704;28;20207;-71
2022/12/27 02:11:50;;;;;;;8.10;4.60;;;;;;;1.08;nan;-23845.59;5012298;28;20645;-71
2022/12/27 02:14:46;;;;;;;8.00;4.93;;;;;;;1.11;nan;-23846.44;5012897;28;20175;-70
2022/12/27 02:17:22;;;;;;;9.27;5.27;;;;;;;1.18;nan;-23848.59;5008750;28;20194;-71
2022/12/27 02:20:06;;;;;;;5.57;4.10;;;;;;;0.95;nan;-23841.88;5012753;28;20251;-69
2022/12/27 02:24:01;;;;;;;11.23;5.20;;;;;;;0.85;nan;-23839.16;5012522;28;20250;-69
2022/12/27 02:25:41;;;;;;;6.83;4.17;;;;;;;0.60;nan;-23832.13;5012360;28;20520;-69
2022/12/27 02:28:12;;;;;;;12.17;5.53;;;;;;;0.70;nan;-23835.00;5012692;28;20265;-69
2022/12/27 02:30:38;;;;;;;13.73;4.87;;;;;;;0.58;nan;-23831.56;5012278;28;20182;-70
2022/12/27 02:33:13;;;;;;;11.40;5.27;;;;;;;0.31;nan;-23824.00;5012168;28;20178;-70
2022/12/27 02:35:43;;;;;;;6.83;4.63;;;;;;;0.93;nan;-23841.44;5012593;28;20250;-69
2022/12/27 02:38:17;;;;;;;24.93;6.20;;;;;;;1.10;nan;-23846.31;5012416;28;20697;-70
2022/12/27 02:57:07;;;;;;;4.63;3.90;;;;;;;0.75;nan;-23836.44;5011660;28;20652;-70
2022/12/27 02:59:04;;;;;;;6.77;4.50;;;;;;;0.44;nan;-23827.72;5011965;28;20199;-70
2022/12/27 03:05:07;;;;;;;7.00;4.30;;;;;;;0.69;nan;-23834.56;5012079;28;20647;-70
2022/12/27 03:07:49;;;;;;;10.80;5.43;;;;;;;0.44;nan;-23827.56;5012240;28;20206;-70
2022/12/27 03:16:23;;;;;;;5.47;3.63;;;;;;;0.07;nan;-23816.97;5011504;28;20180;-70
2022/12/27 03:19:02;;;;;;;4.47;4.07;;;;;;;0.63;nan;-23833.00;5011415;28;20671;-70
2022/12/27 03:27:20;;;;;;;8.63;4.50;;;;;;;0.52;nan;-23829.72;5016106;28;20652;-69
2022/12/27 03:33:11;;;;;;;7.00;3.83;;;;;;;0.73;nan;-23835.72;5015532;28;20225;-70
2022/12/27 03:35:39;;;;;;;7.33;4.70;;;;;;;0.48;nan;-23828.56;5015144;28;20190;-70
2022/12/27 03:38:07;;;;;;;6.40;4.10;;;;;;;0.52;nan;-23829.72;5015645;28;20618;-70
2022/12/27 03:43:44;;;;;;;12.23;4.03;;;;;;;0.32;nan;-23824.13;5015758;28;20228;-70
2022/12/27 03:46:33;;;;;;;7.27;4.40;;;;;;;0.28;nan;-23823.13;5014824;28;20178;-70
2022/12/27 03:49:26;;;;;;;4.63;3.23;;;;;;;-0.02;nan;-23814.69;5015213;28;20238;-70
2022/12/27 03:51:58;;;;;;;6.80;4.97;;;;;;;0.00;nan;-23815.25;5015019;28;20174;-70
2022/12/27 03:54:33;;;;;;;7.00;3.77;;;;;;;0.02;nan;-23815.69;5015286;28;20170;-70
2022/12/27 03:57:03;;;;;;;11.93;4.77;;;;;;;0.35;nan;-23825.00;5015961;28;20721;-70
2022/12/27 03:59:29;;;;;;;10.70;4.97;;;;;;;0.29;nan;-23823.28;5015253;28;20176;-71
2022/12/27 04:01:55;;;;;;;8.30;3.77;;;;;;;0.28;nan;-23823.13;5015442;28;20534;-70
2022/12/27 04:04:20;;;;;;;8.63;3.70;;;;;;;-0.09;nan;-23812.66;5014703;28;20225;-70
2022/12/27 04:06:46;;;;;;;7.97;4.43;;;;;;;0.32;nan;-23824.13;5014699;28;20183;-70
2022/12/27 04:36:31;;;;;;;5.03;3.73;;;;;;;-0.02;nan;-23814.69;5013964;28;20697;-70
2022/12/27 04:38:56;;;;;;;6.20;3.60;;;;;;;-0.12;nan;-23811.81;5014361;28;20173;-71
2022/12/27 04:55:24;;;;;;;5.50;3.90;;;;;;;-0.09;nan;-23812.53;5014420;28;20183;-70
2022/12/27 04:57:51;;;;;;;9.07;5.83;;;;;;;0.16;nan;-23819.53;5014212;28;20169;-70
2022/12/27 05:03:06;;;;;;;4.77;3.87;;;;;;;-0.26;nan;-23807.81;5013834;28;20272;-70
2022/12/27 05:05:34;;;;;;;3.67;3.13;;;;;;;-0.09;nan;-23812.53;5014151;28;20181;-70
2022/12/27 05:16:13;;;;;;;11.33;5.27;;;;;;;0.22;nan;-23821.41;5013587;28;20181;-70
2022/12/27 05:18:39;;;;;;;7.43;3.90;;;;;;;0.11;nan;-23818.25;5013611;28;20178;-70
2022/12/27 05:21:05;;;;;;;21.13;4.50;;;;;;;-0.06;nan;-23813.53;5013627;28;20184;-70
2022/12/27 05:26:25;;;;;;;5.00;3.43;;;;;;;-0.23;nan;-23808.66;5013312;28;20181;-70
2022/12/27 05:28:53;;;;;;;10.80;4.30;;;;;;;0.23;nan;-23821.56;5013581;28;20290;-71
2022/12/27 05:31:20;;;;;;;3.67;2.80;;;;;;;0.03;nan;-23815.81;5013770;28;20211;-70
2022/12/27 05:33:46;;;;;;;7.37;3.93;;;;;;;-0.02;nan;-23814.53;5013672;28;20611;-70
2022/12/27 05:36:11;;;;;;;5.73;3.07;;;;;;;0.39;nan;-23826.13;5012913;28;20643;-70
2022/12/27 05:38:37;;;;;;;7.57;4.20;;;;;;;0.26;nan;-23822.41;5044827;28;20183;-70
2022/12/27 05:41:03;;;;;;;5.93;3.73;;;;;;;0.47;nan;-23828.28;5012894;28;20183;-71
2022/12/27 05:43:29;;;;;;;5.43;3.80;;;;;;;0.35;nan;-23825.13;5013052;28;20276;-70
2022/12/27 05:45:55;;;;;;;7.43;3.90;;;;;;;0.06;nan;-23816.69;5012712;28;20692;-70
2022/12/27 05:48:21;;;;;;;5.93;3.33;;;;;;;0.15;nan;-23819.25;5012039;28;20203;-70
2022/12/27 05:50:47;;;;;;;4.23;3.53;;;;;;;0.11;nan;-23818.25;5044698;28;20173;-69
2022/12/27 05:53:13;;;;;;;7.33;4.03;;;;;;;0.42;nan;-23827.00;5013089;28;20177;-69
2022/12/27 05:55:38;;;;;;;8.37;3.63;;;;;;;0.57;nan;-23831.28;5012825;28;20196;-69
2022/12/27 05:58:04;;;;;;;5.30;4.50;;;;;;;-0.33;nan;-23805.81;5013001;28;20219;-69
2022/12/27 06:00:29;;;;;;;7.20;3.90;;;;;;;0.11;nan;-23818.13;5013041;28;20185;-70
2022/12/27 06:02:54;;;;;;;7.17;4.20;;;;;;;0.58;nan;-23831.44;5012884;28;20638;-69
2022/12/27 06:05:20;;;;;;;12.13;4.03;;;;;;;0.15;nan;-23819.25;5012481;28;20743;-69
2022/12/27 06:07:45;;;;;;;6.13;4.20;;;;;;;0.44;nan;-23827.56;5012711;28;20266;-69
2022/12/27 06:10:11;;;;;;;7.77;4.17;;;;;;;0.48;nan;-23828.56;5012819;28;20572;-69
2022/12/27 06:12:37;;;;;;;8.87;5.00;;;;;;;0.51;nan;-23829.56;5012831;28;20629;-69
2022/12/27 06:15:04;;;;;;;7.70;4.67;;;;;;;0.18;nan;-23820.13;5012677;28;20222;-70
2022/12/27 06:17:30;;;;;;;6.73;3.50;;;;;;;0.30;nan;-23823.56;5012695;28;20244;-70
2022/12/27 06:19:55;;;;;;;5.43;4.20;;;;;;;0.78;nan;-23837.28;5012082;28;20184;-70
2022/12/27 06:22:21;;;;;;;4.50;4.07;;;;;;;0.74;nan;-23836.00;5012465;28;20185;-70
2022/12/27 06:24:46;;;;;;;5.13;3.87;;;;;;;0.73;nan;-23835.88;5013109;28;20257;-70
2022/12/27 06:27:11;;;;;;;6.87;4.57;;;;;;;1.06;nan;-23845.03;5012407;28;20183;-71
2022/12/27 06:29:37;;;;;;;5.97;3.50;;;;;;;1.11;nan;-23846.44;5012393;28;20219;-70
2022/12/27 06:32:02;;;;;;;4.90;4.17;;;;;;;0.91;nan;-23840.72;5012156;28;20183;-70
2022/12/27 06:34:28;;;;;;;8.37;4.90;;;;;;;0.94;nan;-23841.72;5012115;28;20250;-71
2022/12/27 06:36:54;;;;;;;4.13;3.07;;;;;;;0.97;nan;-23842.59;5012642;28;20176;-70
2022/12/27 06:39:19;;;;;;;5.60;3.90;;;;;;;1.04;nan;-23844.44;5012256;28;20172;-70
2022/12/27 06:41:45;;;;;;;7.03;3.33;;;;;;;1.29;nan;-23851.75;5012372;28;20539;-70
2022/12/27 06:44:10;;;;;;;5.43;3.53;;;;;;;1.40;nan;-23854.59;5012166;28;20211;-70
2022/12/27 06:46:36;;;;;;;6.50;4.30;;;;;;;1.55;nan;-23859.03;5043828;28;20550;-71
2022/12/27 06:49:03;;;;;;;5.37;3.50;;;;;;;1.52;nan;-23858.16;5011751;28;20290;-70
2022/12/27 06:51:28;;;;;;;6.60;4.03;;;;;;;1.69;nan;-23862.88;5012370;28;20172;-70
2022/12/27 06:53:53;;;;;;;5.13;3.67;;;;;;;1.70;nan;-23863.16;5012428;28;20712;-70
2022/12/27 06:56:22;;;;;;;4.87;4.00;;;;;;;1.89;nan;-23868.47;5011719;28;20168;-70
2022/12/27 06:58:49;;;;;;;7.37;4.17;;;;;;;1.92;nan;-23869.31;5012871;28;20187;-70
2022/12/27 07:01:16;;;;;;;7.07;3.70;;;;;;;1.76;nan;-23865.03;5016274;28;20161;-70
2022/12/27 07:03:42;;;;;;;6.00;3.53;;;;;;;1.87;nan;-23867.88;5015399;28;20628;-70
2022/12/27 07:06:12;;;;;;;9.77;3.90;;;;;;;1.70;nan;-23863.31;5016031;28;20176;-70
2022/12/27 07:08:38;;;;;;;4.43;3.80;;;;;;;1.94;nan;-23869.88;5015987;28;20246;-71
2022/12/27 07:11:07;;;;;;;6.53;2.93;;;;;;;2.55;nan;-23887.16;5015866;28;20172;-71
2022/12/27 07:13:35;;;;;;;6.87;3.27;;;;;;;2.49;nan;-23885.44;5016212;28;20179;-71
2022/12/27 07:16:05;;;;;;;5.70;3.40;;;;;;;2.55;nan;-23887.16;5014207;28;20275;-71
2022/12/27 07:18:31;;;;;;;5.83;3.07;;;;;;;2.63;nan;-23889.59;5014742;28;20194;-71
2022/12/27 07:20:56;;;;;;;6.30;4.10;;;;;;;2.67;nan;-23890.72;5015394;28;20197;-71
2022/12/27 07:23:22;;;;;;;6.70;3.87;;;;;;;2.63;nan;-23889.59;5015689;28;20184;-71
2022/12/27 07:25:47;;;;;;;4.53;3.67;;;;;;;2.63;nan;-23889.59;5016427;28;20187;-71
2022/12/27 07:28:12;;;;;;;5.07;3.27;;;;;;;2.83;nan;-23895.16;5015505;28;20595;-71
2022/12/27 07:30:40;;;;;;;3.27;2.93;;;;;;;2.71;nan;-23891.72;5015493;28;20179;-70
2022/12/27 07:33:06;;;;;;;6.60;3.53;;;;;;;3.20;nan;-23905.41;5015693;28;20581;-72
2022/12/27 07:35:32;;;;;;;7.33;4.07;;;;;;;3.19;nan;-23905.13;5014594;28;20572;-72
2022/12/27 07:37:57;;;;;;;4.30;3.07;;;;;;;3.24;nan;-23906.72;5015201;28;20172;-70
2022/12/27 07:40:23;;;;;;;5.47;3.30;;;;;;;3.60;nan;-23916.69;5015537;28;20172;-70
2022/12/27 07:42:48;;;;;;;7.27;3.50;;;;;;;2.32;nan;-23880.75;5015655;28;20255;-70
2022/12/27 07:45:13;;;;;;;7.43;4.70;;;;;;;3.34;nan;-23909.56;5015115;28;20174;-70
2022/12/27 07:47:39;;;;;;;4.60;3.00;;;;;;;3.93;nan;-23926.09;5014712;28;20706;-70
2022/12/27 07:50:05;;;;;;;3.70;3.20;;;;;;;3.97;nan;-23927.38;5014989;28;20168;-71
2022/12/27 07:52:30;;;;;;;7.53;4.03;;;;;;;4.31;nan;-23936.78;5015300;28;20171;-70
2022/12/27 07:54:56;;;;;;;4.93;3.40;;;;;;;4.44;nan;-23940.47;5015049;28;20604;-70
2022/12/27 07:57:21;;;;;;;4.60;3.50;;;;;;;4.55;nan;-23943.59;5013704;28;20176;-72
2022/12/27 07:59:46;;;;;;;3.93;3.43;;;;;;;4.73;nan;-23948.72;5015360;28;20254;-71
2022/12/27 08:02:12;;;;;;;5.57;3.67;;;;;;;4.60;nan;-23944.88;5014533;28;20180;-71
2022/12/27 08:04:38;;;;;;;6.07;3.73;;;;;;;5.08;nan;-23958.41;5014375;28;20295;-70
2022/12/27 08:07:14;;;;;;;6.00;3.53;;;;;;;5.15;nan;-23960.53;5014864;28;20251;-72
2022/12/27 08:09:42;;;;;;;11.33;4.77;;;;;;;5.33;nan;-23965.66;5014186;28;20195;-70
2022/12/27 08:12:08;;;;;;;5.83;4.23;;;;;;;5.24;nan;-23962.94;5015015;28;20176;-70
2022/12/27 08:14:33;;;;;;;7.67;4.00;;;;;;;5.11;nan;-23959.41;5014545;28;20168;-72
2022/12/27 08:17:22;;;;;;;5.90;3.70;;;;;;;5.41;nan;-23967.66;5014878;28;20172;-71
2022/12/27 08:19:50;;;;;;;6.43;3.83;;;;;;;5.10;nan;-23959.13;5014912;28;20635;-71
2022/12/27 08:22:16;;;;;;;8.93;4.33;;;;;;;5.51;nan;-23970.63;5014431;28;20200;-71
2022/12/27 08:24:42;;;;;;;5.57;3.60;;;;;;;5.69;nan;-23975.75;5014367;28;20200;-72
2022/12/27 08:27:08;;;;;;;5.20;3.77;;;;;;;5.69;nan;-23975.59;5014293;28;20626;-71
2022/12/27 08:29:34;;;;;;;6.23;3.53;;;;;;;6.00;nan;-23984.41;5012873;28;20239;-72
2022/12/27 08:31:59;;;;;;;6.60;4.13;;;;;;;6.22;nan;-23990.53;5014395;28;20199;-72
2022/12/27 08:34:25;;;;;;;7.17;4.73;;;;;;;6.36;nan;-23994.34;5012850;28;20222;-70
2022/12/27 08:36:50;;;;;;;5.13;3.93;;;;;;;6.50;nan;-23998.34;5014706;28;20172;-74
2022/12/27 08:39:16;;;;;;;6.93;4.70;;;;;;;6.40;nan;-23995.63;5014033;28;20263;-71
2022/12/27 08:41:41;;;;;;;8.37;4.73;;;;;;;6.57;nan;-24000.31;5014216;28;20176;-71
2022/12/27 08:44:08;;;;;;;7.80;4.57;;;;;;;6.61;nan;-24001.59;5014012;28;20525;-72
2022/12/27 08:46:34;;;;;;;8.90;6.00;;;;;;;6.50;nan;-23998.47;5014061;28;20564;-72
2022/12/27 08:48:59;;;;;;;9.07;5.03;;;;;;;6.79;nan;-24006.56;5013862;28;20204;-72
2022/12/27 08:51:25;;;;;;;9.87;5.27;;;;;;;6.94;nan;-24010.69;5013798;28;20208;-72
2022/12/27 08:53:50;;;;;;;8.27;4.63;;;;;;;7.27;nan;-24019.91;5013701;28;20662;-71
2022/12/27 08:56:16;;;;;;;10.30;4.77;;;;;;;7.39;nan;-24023.44;5013988;28;20255;-71
2022/12/27 08:58:41;;;;;;;6.80;5.07;;;;;;;7.20;nan;-24017.91;5013880;28;20639;-72
2022/12/27 09:01:08;;;;;;;11.67;6.13;;;;;;;7.63;nan;-24030.09;5014191;28;20631;-71
2022/12/27 09:03:33;;;;;;;12.50;5.07;;;;;;;7.78;nan;-24034.34;5013918;28;20216;-71
2022/12/27 09:06:09;;;;;;;8.17;4.87;;;;;;;7.92;nan;-24038.19;5014073;28;20187;-72
2022/12/27 09:08:35;;;;;;;7.27;4.43;;;;;;;8.07;nan;-24042.28;5013570;28;20206;-71
2022/12/27 09:11:07;;;;;;;8.33;4.63;;;;;;;8.10;nan;-24043.13;5014076;28;20547;-71
2022/12/27 09:13:33;;;;;;;5.93;4.27;;;;;;;8.22;nan;-24046.69;5013402;28;20554;-71
2022/12/27 09:15:58;;;;;;;10.00;5.00;;;;;;;8.22;nan;-24046.53;5013556;28;20180;-70
2022/12/27 09:18:24;;;;;;;10.03;5.37;;;;;;;8.44;nan;-24052.78;5013734;28;20561;-71
2022/12/27 09:20:49;;;;;;;7.27;4.67;;;;;;;8.31;nan;-24049.22;5012062;28;20192;-72
2022/12/27 09:23:14;;;;;;;13.00;5.93;;;;;;;8.75;nan;-24061.53;5012944;28;20176;-71
2022/12/27 09:25:39;;;;;;;10.87;5.57;;;;;;;8.61;nan;-24057.56;5013315;28;20179;-71
2022/12/27 09:28:05;;;;;;;11.97;6.00;;;;;;;8.69;nan;-24059.69;5013325;28;20710;-72
2022/12/27 09:30:31;;;;;;;14.27;6.53;;;;;;;8.80;nan;-24062.81;5017787;28;20187;-72
2022/12/27 09:32:57;;;;;;;13.23;5.93;;;;;;;9.02;nan;-24069.03;5013473;28;20179;-72
2022/12/27 09:35:22;;;;;;;9.77;5.35;;;;;;;9.10;nan;-24071.31;5013228;28;20176;-71
2022/12/27 09:37:48;;;;;;;11.10;5.38;;;;;;;9.17;nan;-24073.13;5012889;28;20187;-70
2022/12/27 09:40:18;;;;;;;9.77;5.28;;;;;;;9.30;nan;-24076.81;5013629;28;20643;-71
2022/12/27 09:43:06;;;;;;;10.18;5.88;;;;;;;9.18;nan;-24073.41;5013381;28;20186;-72
2022/12/27 09:45:41;;;;;;;11.77;6.10;;;;;;;9.03;nan;-24069.19;5013210;28;20195;-71
2022/12/27 09:48:34;;;;;;;10.82;6.47;;;;;;;9.55;nan;-24083.88;5012528;28;20253;-71
2022/12/27 09:51:07;;;;;;;11.00;5.65;;;;;;;9.70;nan;-24088.13;5013357;28;20164;-71
2022/12/27 09:53:59;;;;;;;9.90;5.75;;;;;;;9.99;nan;-24096.16;5013156;28;20168;-71
2022/12/27 09:56:28;;;;;;;12.50;5.60;;;;;;;10.15;nan;-24100.69;5009354;28;20206;-71
2022/12/27 09:59:20;;;;;;;12.93;5.90;;;;;;;9.69;nan;-24087.69;5010400;28;20242;-71
2022/12/27 10:01:47;;;;;;;11.82;6.13;;;;;;;9.79;nan;-24090.38;5010595;28;20180;-71
2022/12/27 10:04:16;;;;;;;9.70;5.18;;;;;;;10.01;nan;-24096.59;5010015;28;20239;-71
2022/12/27 10:06:47;;;;;;;11.30;5.97;;;;;;;10.46;nan;-24109.16;5010523;28;20287;-71
2022/12/27 10:09:48;;;;;;;12.35;6.13;;;;;;;10.68;nan;-24115.22;5010151;28;20745;-71
2022/12/27 10:12:45;;;;;;;9.48;4.90;;;;;;;11.00;nan;-24124.25;4971161;28;20317;-72
2022/12/27 10:15:48;;;;;;;10.65;6.20;;;;;;;11.30;nan;-24132.72;5010578;28;20196;-71
2022/12/27 10:18:32;;;;;;;8.93;5.43;;;;;;;11.56;nan;-24139.75;4971681;28;20613;-71
2022/12/27 10:21:18;;;;;;;9.18;5.40;;;;;;;11.79;nan;-24146.38;5007779;28;20202;-72
2022/12/27 10:23:51;;;;;;;11.68;5.50;;;;;;;12.03;nan;-24152.84;5009934;28;20642;-70
2022/12/27 10:26:18;;;;;;;10.75;4.95;;;;;;;11.93;nan;-24150.31;5009948;28;20176;-70
2022/12/27 10:28:47;;;;;;;12.13;6.25;;;;;;;12.00;nan;-24152.16;5012527;28;20203;-71
2022/12/27 10:31:18;;;;;;;9.27;4.90;;;;;;;12.28;nan;-24160.03;5012247;28;20164;-70
2022/12/27 10:33:46;;;;;;;9.45;5.40;;;;;;;12.77;nan;-24173.53;5012699;28;20172;-72
2022/12/27 10:36:19;;;;;;;9.75;5.05;;;;;;;13.05;nan;-24181.41;5012267;28;20254;-73
2022/12/27 10:38:45;;;;;;;40.72;17.95;;;;;;;12.91;nan;-24177.47;5012391;28;20179;-71
2022/12/27 10:41:38;;;;;;;63.92;25.02;;;;;;;13.40;nan;-24191.13;5012571;28;20230;-70
2022/12/27 10:44:11;;;;;;;33.78;13.93;;;;;;;13.48;nan;-24193.34;5011992;28;20167;-71
2022/12/27 10:46:37;;;;;;;31.10;13.73;;;;;;;13.64;nan;-24197.72;5012124;28;20598;-71
2022/12/27 10:49:07;;;;;;;17.95;8.75;;;;;;;13.61;nan;-24197.00;5011725;28;20203;-71
2022/12/27 10:51:40;;;;;;;26.27;10.52;;;;;;;13.24;nan;-24186.75;5012213;28;20172;-70
2022/12/27 10:54:20;;;;;;;18.42;9.80;;;;;;;13.45;nan;-24192.38;5012021;28;20203;-70
2022/12/27 10:56:46;;;;;;;31.70;12.93;;;;;;;13.54;nan;-24194.91;5011940;28;20222;-71
2022/12/27 10:59:24;;;;;;;25.48;13.70;;;;;;;13.95;nan;-24206.28;5012070;28;20184;-71
2022/12/27 11:02:17;;;;;;;28.70;11.73;;;;;;;14.23;nan;-24214.00;5011808;28;20164;-71
2022/12/27 11:04:58;;;;;;;18.95;9.38;;;;;;;14.34;nan;-24217.22;5013416;28;20232;-71
2022/12/27 11:07:28;;;;;;;18.40;7.97;;;;;;;14.44;nan;-24219.88;5012200;28;20192;-71
2022/12/27 11:10:05;;;;;;;16.40;7.65;;;;;;;14.46;nan;-24220.59;5011777;28;20176;-71
2022/12/27 11:12:31;;;;;;;15.93;7.25;;;;;;;14.44;nan;-24220.03;5012045;28;20195;-71
2022/12/27 11:15:09;;;;;;;37.83;15.30;;;;;;;14.73;nan;-24228.03;5010152;28;20278;-71
2022/12/27 11:17:36;;;;;;;75.32;31.02;;;;;;;14.69;nan;-24226.91;5017302;28;20187;-71
2022/12/27 11:20:17;;;;;;;69.20;29.60;;;;;;;14.94;nan;-24233.75;5012153;28;20322;-72
2022/12/27 11:22:56;;;;;;;41.85;17.90;;;;;;;15.03;nan;-24236.28;5007059;28;20184;-72
2022/12/27 11:25:24;;;;;;;32.83;12.77;;;;;;;15.11;nan;-24238.53;5011904;28;20687;-70
2022/12/27 11:27:53;;;;;;;17.77;7.55;;;;;;;15.27;nan;-24243.00;5011594;28;20192;-71
2022/12/27 11:30:28;;;;;;;13.40;6.20;;;;;;;14.98;nan;-24234.88;5012255;28;20168;-72
2022/12/27 11:32:54;;;;;;;7.97;4.45;;;;;;;15.29;nan;-24243.44;5011504;28;20168;-71
2022/12/27 11:35:21;;;;;;;6.20;3.70;;;;;;;15.68;nan;-24254.22;5011685;28;20577;-71
2022/12/27 11:37:49;;;;;;;6.40;3.75;;;;;;;15.77;nan;-24256.72;5012155;28;20219;-70
2022/12/27 11:40:23;;;;;;;4.97;3.65;;;;;;;16.01;nan;-24263.31;5011535;28;20199;-71
2022/12/27 11:43:14;;;;;;;7.85;3.70;;;;;;;15.78;nan;-24257.16;5011716;28;20176;-71
2022/12/27 11:45:50;;;;;;;5.55;3.45;;;;;;;16.15;nan;-24267.38;5013639;28;20242;-71
2022/12/27 11:48:34;;;;;;;6.38;3.28;;;;;;;16.08;nan;-24265.28;5015686;28;20185;-72
2022/12/27 11:51:23;;;;;;;6.10;3.35;;;;;;;16.38;nan;-24273.66;5015779;28;20172;-71
2022/12/27 11:54:10;;;;;;;5.35;3.35;;;;;;;16.53;nan;-24277.84;5015862;28;20180;-71
2022/12/27 11:56:39;;;;;;;4.70;3.17;;;;;;;16.62;nan;-24280.22;5015319;28;20175;-71
2022/12/27 11:59:24;;;;;;;5.80;2.67;;;;;;;16.70;nan;-24282.59;5014925;28;20254;-71
2022/12/27 12:02:05;;;;;;;8.00;3.00;;;;;;;16.90;nan;-24287.91;5014475;28;20168;-71
2022/12/27 12:04:45;;;;;;;5.18;2.63;;;;;;;16.83;nan;-24285.97;5015479;28;20310;-71
2022/12/27 12:07:35;;;;;;;4.90;2.67;;;;;;;16.77;nan;-24284.56;5015507;28;20188;-71
2022/12/27 12:10:20;;;;;;;3.90;2.38;;;;;;;17.08;nan;-24292.94;5015234;28;20184;-71
2022/12/27 12:13:24;;;;;;;3.25;2.03;;;;;;;17.13;nan;-24294.47;5015096;28;20710;-71
2022/12/27 12:15:49;;;;;;;2.45;2.10;;;;;;;17.32;nan;-24299.50;5013206;28;20191;-72
2022/12/27 12:18:33;;;;;;;2.88;1.98;;;;;;;17.23;nan;-24297.13;5014448;28;20176;-71
2022/12/27 12:21:25;;;;;;;3.53;2.13;;;;;;;17.22;nan;-24297.00;5014893;28;20176;-71
2022/12/27 12:24:11;;;;;;;3.50;2.20;;;;;;;17.40;nan;-24301.72;5014723;28;20566;-72
2022/12/27 12:27:03;;;;;;;2.88;1.80;;;;;;;17.14;nan;-24294.75;5014572;28;20168;-71
2022/12/27 12:29:35;;;;;;;2.58;1.85;;;;;;;17.44;nan;-24303.00;5014836;28;20207;-71
2022/12/27 12:32:03;;;;;;;4.20;2.35;;;;;;;17.56;nan;-24306.19;5014990;28;20168;-71
2022/12/27 12:34:55;;;;;;;3.10;2.03;;;;;;;17.63;nan;-24308.28;5014537;28;20191;-71
2022/12/27 12:37:58;;;;;;;2.97;1.98;;;;;;;17.61;nan;-24307.75;5014253;28;20180;-72
2022/12/27 12:40:33;;;;;;;3.70;2.25;;;;;;;17.64;nan;-24308.44;5014573;28;20170;-72
2022/12/27 12:43:02;;;;;;;5.95;2.00;;;;;;;17.66;nan;-24309.13;5014850;28;20171;-72
2022/12/27 12:45:27;;;;;;;3.25;2.00;;;;;;;17.60;nan;-24307.47;5012946;28;20267;-72
2022/12/27 12:48:39;;;;;;;3.25;2.35;;;;;;;17.62;nan;-24307.88;5013706;28;20286;-73
2022/12/27 12:51:38;;;;;;;2.88;1.98;;;;;;;17.73;nan;-24310.94;4988643;28;20640;-72
2022/12/27 12:54:30;;;;;;;2.55;1.88;;;;;;;17.68;nan;-24309.56;5014329;28;20176;-71
2022/12/27 12:57:08;;;;;;;4.13;2.35;;;;;;;17.84;nan;-24313.88;5012977;28;20176;-72
2022/12/27 12:59:53;;;;;;;2.53;2.03;;;;;;;17.78;nan;-24312.19;5014263;28;20199;-72
2022/12/27 13:02:27;;;;;;;2.38;1.80;;;;;;;17.92;nan;-24316.25;5013797;28;20175;-72
2022/12/27 13:04:58;;;;;;;3.05;2.08;;;;;;;17.94;nan;-24316.66;5014456;28;20231;-72
2022/12/27 13:07:36;;;;;;;2.15;1.40;;;;;;;17.81;nan;-24313.03;5013999;28;20632;-71
2022/12/27 13:10:14;;;;;;;2.58;1.95;;;;;;;17.94;nan;-24316.66;5013983;28;20192;-71
2022/12/27 13:12:56;;;;;;;2.60;1.75;;;;;;;17.63;nan;-24308.28;5015893;28;20187;-71
2022/12/27 13:15:46;;;;;;;2.22;1.95;;;;;;;17.97;nan;-24317.63;5013739;28;20265;-72
2022/12/27 13:18:25;;;;;;;5.95;1.60;;;;;;;18.02;nan;-24318.91;5013440;28;20228;-72
2022/12/27 13:21:34;;;;;;;3.17;1.70;;;;;;;18.22;nan;-24324.47;5013238;28;20183;-72
2022/12/27 13:24:06;;;;;;;4.50;1.80;;;;;;;18.22;nan;-24324.34;5012475;28;20621;-72
2022/12/27 13:26:46;;;;;;;2.13;1.73;;;;;;;17.83;nan;-24313.59;5013673;28;20195;-72
2022/12/27 13:29:41;;;;;;;3.22;1.95;;;;;;;18.15;nan;-24322.53;5013816;28;20195;-72
2022/12/27 13:32:12;;;;;;;1.70;1.55;;;;;;;18.05;nan;-24319.88;5011909;28;20573;-72
2022/12/27 13:34:42;;;;;;;2.42;2.22;;;;;;;17.99;nan;-24318.06;5013417;28;20524;-72
2022/12/27 13:37:35;;;;;;;3.92;2.03;;;;;;;18.06;nan;-24320.00;5013405;28;20176;-72
2022/12/27 13:40:14;;;;;;;3.38;1.70;;;;;;;17.57;nan;-24306.47;5012797;28;20248;-72